sensor_id;sensor_type;location;lat;lon;timestamp;P1;durP1;ratioP1;P2;durP2;ratioP2
25990;SDS011;13779;-33.886;151.198;2024-01-30T00:00:12;19.65;;;5.38;;
25990;SDS011;13779;-33.886;151.198;2024-01-30T00:02:43;18.08;;;5.20;;
25990;SDS011;13779;-33.886;151.198;2024-01-30T00:05:14;17.00;;;6.97;;
25990;SDS011;13779;-33.886;151.198;2024-01-30T00:07:45;23.55;;;6.13;;
25990;SDS011;13779;-33.886;151.198;2024-01-30T00:10:15;19.77;;;5.95;;
25990;SDS011;13779;-33.886;151.198;2024-01-30T00:12:46;17.50;;;4.80;;
25990;SDS011;13779;-33.886;151.198;2024-01-30T00:15:17;15.32;;;5.05;;
25990;SDS011;13779;-33.886;151.198;2024-01-30T00:17:47;16.33;;;5.10;;
25990;SDS011;13779;-33.886;151.198;2024-01-30T00:20:20;15.48;;;4.70;;
25990;SDS011;13779;-33.886;151.198;2024-01-30T00:22:51;23.00;;;4.80;;
25990;SDS011;13779;-33.886;151.198;2024-01-30T00:25:22;17.15;;;4.70;;
25990;SDS011;13779;-33.886;151.198;2024-01-30T00:27:53;14.20;;;4.40;;
25990;SDS011;13779;-33.886;151.198;2024-01-30T00:30:24;12.77;;;4.90;;
25990;SDS011;13779;-33.886;151.198;2024-01-30T00:32:54;15.52;;;4.72;;
25990;SDS011;13779;-33.886;151.198;2024-01-30T00:35:25;18.63;;;4.72;;
25990;SDS011;13779;-33.886;151.198;2024-01-30T00:37:58;21.35;;;6.13;;
25990;SDS011;13779;-33.886;151.198;2024-01-30T00:40:28;18.05;;;5.10;;
25990;SDS011;13779;-33.886;151.198;2024-01-30T00:42:59;20.02;;;5.05;;
25990;SDS011;13779;-33.886;151.198;2024-01-30T00:45:29;12.90;;;4.28;;
25990;SDS011;13779;-33.886;151.198;2024-01-30T00:48:00;15.40;;;4.88;;
25990;SDS011;13779;-33.886;151.198;2024-01-30T00:50:31;19.48;;;5.03;;
25990;SDS011;13779;-33.886;151.198;2024-01-30T00:53:01;12.52;;;4.50;;
25990;SDS011;13779;-33.886;151.198;2024-01-30T00:55:32;12.82;;;4.38;;
25990;SDS011;13779;-33.886;151.198;2024-01-30T00:58:03;14.98;;;4.88;;
25990;SDS011;13779;-33.886;151.198;2024-01-30T01:03:04;21.15;;;4.53;;
25990;SDS011;13779;-33.886;151.198;2024-01-30T01:05:35;22.05;;;5.10;;
25990;SDS011;13779;-33.886;151.198;2024-01-30T01:08:06;13.15;;;4.43;;
25990;SDS011;13779;-33.886;151.198;2024-01-30T01:10:37;15.88;;;4.65;;
25990;SDS011;13779;-33.886;151.198;2024-01-30T01:13:08;13.63;;;4.50;;
25990;SDS011;13779;-33.886;151.198;2024-01-30T01:15:39;19.73;;;5.03;;
25990;SDS011;13779;-33.886;151.198;2024-01-30T01:18:10;21.40;;;5.28;;
25990;SDS011;13779;-33.886;151.198;2024-01-30T01:23:11;16.60;;;4.72;;
25990;SDS011;13779;-33.886;151.198;2024-01-30T01:25:41;17.80;;;4.68;;
25990;SDS011;13779;-33.886;151.198;2024-01-30T01:28:11;15.03;;;4.70;;
25990;SDS011;13779;-33.886;151.198;2024-01-30T01:30:41;18.35;;;5.00;;
25990;SDS011;13779;-33.886;151.198;2024-01-30T01:33:12;20.50;;;5.18;;
25990;SDS011;13779;-33.886;151.198;2024-01-30T01:35:42;15.48;;;4.30;;
25990;SDS011;13779;-33.886;151.198;2024-01-30T01:38:13;15.60;;;4.85;;
25990;SDS011;13779;-33.886;151.198;2024-01-30T01:40:43;21.00;;;5.28;;
25990;SDS011;13779;-33.886;151.198;2024-01-30T01:43:14;23.77;;;5.88;;
25990;SDS011;13779;-33.886;151.198;2024-01-30T01:45:44;22.63;;;5.50;;
25990;SDS011;13779;-33.886;151.198;2024-01-30T01:48:15;25.25;;;6.05;;
25990;SDS011;13779;-33.886;151.198;2024-01-30T01:50:45;27.13;;;6.88;;
25990;SDS011;13779;-33.886;151.198;2024-01-30T01:53:16;22.60;;;6.45;;
25990;SDS011;13779;-33.886;151.198;2024-01-30T01:55:46;18.67;;;5.80;;
25990;SDS011;13779;-33.886;151.198;2024-01-30T01:58:17;21.48;;;5.57;;
25990;SDS011;13779;-33.886;151.198;2024-01-30T02:00:48;27.83;;;6.20;;
25990;SDS011;13779;-33.886;151.198;2024-01-30T02:03:19;18.02;;;5.82;;
25990;SDS011;13779;-33.886;151.198;2024-01-30T02:05:53;21.73;;;6.47;;
25990;SDS011;13779;-33.886;151.198;2024-01-30T02:08:24;20.60;;;5.18;;
25990;SDS011;13779;-33.886;151.198;2024-01-30T02:10:54;19.58;;;5.45;;
25990;SDS011;13779;-33.886;151.198;2024-01-30T02:13:24;20.93;;;5.73;;
25990;SDS011;13779;-33.886;151.198;2024-01-30T02:15:55;23.80;;;5.30;;
25990;SDS011;13779;-33.886;151.198;2024-01-30T02:18:25;17.88;;;5.28;;
25990;SDS011;13779;-33.886;151.198;2024-01-30T02:20:56;16.70;;;5.00;;
25990;SDS011;13779;-33.886;151.198;2024-01-30T02:23:30;22.63;;;4.80;;
25990;SDS011;13779;-33.886;151.198;2024-01-30T02:26:03;21.70;;;5.50;;
25990;SDS011;13779;-33.886;151.198;2024-01-30T02:28:33;23.92;;;6.05;;
25990;SDS011;13779;-33.886;151.198;2024-01-30T02:31:04;15.55;;;5.15;;
25990;SDS011;13779;-33.886;151.198;2024-01-30T02:33:35;15.27;;;4.00;;
25990;SDS011;13779;-33.886;151.198;2024-01-30T02:36:06;19.67;;;5.22;;
25990;SDS011;13779;-33.886;151.198;2024-01-30T02:38:37;22.10;;;4.90;;
25990;SDS011;13779;-33.886;151.198;2024-01-30T02:41:08;18.23;;;4.70;;
25990;SDS011;13779;-33.886;151.198;2024-01-30T02:43:38;13.50;;;3.97;;
25990;SDS011;13779;-33.886;151.198;2024-01-30T02:46:09;21.45;;;4.65;;
25990;SDS011;13779;-33.886;151.198;2024-01-30T02:48:40;22.13;;;4.60;;
25990;SDS011;13779;-33.886;151.198;2024-01-30T02:51:11;17.65;;;5.22;;
25990;SDS011;13779;-33.886;151.198;2024-01-30T02:53:41;15.18;;;4.45;;
25990;SDS011;13779;-33.886;151.198;2024-01-30T02:56:12;22.02;;;4.03;;
25990;SDS011;13779;-33.886;151.198;2024-01-30T02:58:43;17.73;;;4.20;;
25990;SDS011;13779;-33.886;151.198;2024-01-30T03:01:14;14.85;;;4.10;;
25990;SDS011;13779;-33.886;151.198;2024-01-30T03:03:44;15.25;;;3.65;;
25990;SDS011;13779;-33.886;151.198;2024-01-30T03:06:15;17.67;;;3.38;;
25990;SDS011;13779;-33.886;151.198;2024-01-30T03:08:48;13.88;;;4.45;;
25990;SDS011;13779;-33.886;151.198;2024-01-30T03:11:19;21.48;;;4.60;;
25990;SDS011;13779;-33.886;151.198;2024-01-30T03:13:49;17.70;;;4.22;;
25990;SDS011;13779;-33.886;151.198;2024-01-30T03:16:20;13.48;;;4.15;;
25990;SDS011;13779;-33.886;151.198;2024-01-30T03:18:50;14.10;;;3.83;;
25990;SDS011;13779;-33.886;151.198;2024-01-30T03:21:21;24.90;;;4.78;;
25990;SDS011;13779;-33.886;151.198;2024-01-30T03:23:52;15.13;;;3.45;;
25990;SDS011;13779;-33.886;151.198;2024-01-30T03:28:52;17.17;;;3.60;;
25990;SDS011;13779;-33.886;151.198;2024-01-30T03:31:23;16.60;;;3.95;;
25990;SDS011;13779;-33.886;151.198;2024-01-30T03:33:54;20.42;;;4.15;;
25990;SDS011;13779;-33.886;151.198;2024-01-30T03:36:24;14.70;;;3.90;;
25990;SDS011;13779;-33.886;151.198;2024-01-30T03:38:55;14.15;;;3.67;;
25990;SDS011;13779;-33.886;151.198;2024-01-30T03:41:25;19.63;;;4.05;;
25990;SDS011;13779;-33.886;151.198;2024-01-30T03:43:56;21.52;;;4.88;;
25990;SDS011;13779;-33.886;151.198;2024-01-30T03:46:27;14.35;;;3.47;;
25990;SDS011;13779;-33.886;151.198;2024-01-30T03:48:57;15.15;;;4.68;;
25990;SDS011;13779;-33.886;151.198;2024-01-30T03:51:28;17.25;;;4.10;;
25990;SDS011;13779;-33.886;151.198;2024-01-30T03:53:58;25.17;;;7.68;;
25990;SDS011;13779;-33.886;151.198;2024-01-30T03:56:29;20.08;;;4.55;;
25990;SDS011;13779;-33.886;151.198;2024-01-30T03:58:59;22.83;;;4.97;;
25990;SDS011;13779;-33.886;151.198;2024-01-30T04:01:31;25.20;;;7.00;;
25990;SDS011;13779;-33.886;151.198;2024-01-30T04:04:02;24.27;;;6.35;;
25990;SDS011;13779;-33.886;151.198;2024-01-30T04:06:32;20.63;;;4.78;;
25990;SDS011;13779;-33.886;151.198;2024-01-30T04:09:03;19.65;;;3.67;;
25990;SDS011;13779;-33.886;151.198;2024-01-30T04:11:34;24.88;;;4.97;;
25990;SDS011;13779;-33.886;151.198;2024-01-30T04:14:04;16.48;;;4.63;;
25990;SDS011;13779;-33.886;151.198;2024-01-30T04:16:35;15.68;;;4.63;;
25990;SDS011;13779;-33.886;151.198;2024-01-30T04:19:05;16.65;;;4.20;;
25990;SDS011;13779;-33.886;151.198;2024-01-30T04:21:36;18.48;;;4.35;;
25990;SDS011;13779;-33.886;151.198;2024-01-30T04:24:07;14.32;;;3.88;;
25990;SDS011;13779;-33.886;151.198;2024-01-30T04:26:38;13.65;;;3.95;;
25990;SDS011;13779;-33.886;151.198;2024-01-30T04:29:09;16.67;;;4.30;;
25990;SDS011;13779;-33.886;151.198;2024-01-30T04:31:39;17.90;;;4.85;;
25990;SDS011;13779;-33.886;151.198;2024-01-30T04:34:10;17.55;;;4.57;;
25990;SDS011;13779;-33.886;151.198;2024-01-30T04:36:43;19.63;;;4.05;;
25990;SDS011;13779;-33.886;151.198;2024-01-30T04:39:14;19.27;;;4.03;;
25990;SDS011;13779;-33.886;151.198;2024-01-30T04:41:45;20.63;;;4.72;;
25990;SDS011;13779;-33.886;151.198;2024-01-30T04:44:16;22.58;;;6.93;;
25990;SDS011;13779;-33.886;151.198;2024-01-30T04:49:17;20.85;;;3.72;;
25990;SDS011;13779;-33.886;151.198;2024-01-30T04:51:51;20.38;;;4.15;;
25990;SDS011;13779;-33.886;151.198;2024-01-30T04:54:21;20.15;;;4.10;;
25990;SDS011;13779;-33.886;151.198;2024-01-30T04:56:52;25.55;;;4.90;;
25990;SDS011;13779;-33.886;151.198;2024-01-30T04:59:23;18.67;;;4.15;;
25990;SDS011;13779;-33.886;151.198;2024-01-30T05:04:24;20.38;;;5.47;;
25990;SDS011;13779;-33.886;151.198;2024-01-30T05:06:54;19.75;;;4.25;;
25990;SDS011;13779;-33.886;151.198;2024-01-30T05:09:25;18.63;;;3.88;;
25990;SDS011;13779;-33.886;151.198;2024-01-30T05:11:56;19.98;;;5.22;;
25990;SDS011;13779;-33.886;151.198;2024-01-30T05:14:26;23.58;;;4.28;;
25990;SDS011;13779;-33.886;151.198;2024-01-30T05:16:57;22.75;;;4.25;;
25990;SDS011;13779;-33.886;151.198;2024-01-30T05:19:27;26.33;;;5.22;;
25990;SDS011;13779;-33.886;151.198;2024-01-30T05:21:58;20.83;;;4.00;;
25990;SDS011;13779;-33.886;151.198;2024-01-30T05:24:29;29.27;;;5.47;;
25990;SDS011;13779;-33.886;151.198;2024-01-30T05:27:00;27.75;;;5.32;;
25990;SDS011;13779;-33.886;151.198;2024-01-30T05:29:31;23.10;;;5.35;;
25990;SDS011;13779;-33.886;151.198;2024-01-30T05:34:33;19.42;;;4.32;;
25990;SDS011;13779;-33.886;151.198;2024-01-30T05:37:05;23.65;;;4.93;;
25990;SDS011;13779;-33.886;151.198;2024-01-30T05:42:06;27.35;;;4.93;;
25990;SDS011;13779;-33.886;151.198;2024-01-30T05:47:07;19.42;;;4.07;;
25990;SDS011;13779;-33.886;151.198;2024-01-30T05:49:38;18.45;;;4.68;;
25990;SDS011;13779;-33.886;151.198;2024-01-30T05:52:09;21.27;;;4.70;;
25990;SDS011;13779;-33.886;151.198;2024-01-30T05:54:40;23.38;;;4.03;;
25990;SDS011;13779;-33.886;151.198;2024-01-30T05:57:10;20.50;;;4.68;;
25990;SDS011;13779;-33.886;151.198;2024-01-30T05:59:41;19.13;;;4.25;;
25990;SDS011;13779;-33.886;151.198;2024-01-30T06:02:12;18.27;;;4.32;;
25990;SDS011;13779;-33.886;151.198;2024-01-30T06:04:43;17.92;;;4.10;;
25990;SDS011;13779;-33.886;151.198;2024-01-30T06:07:14;23.77;;;5.45;;
25990;SDS011;13779;-33.886;151.198;2024-01-30T06:09:46;23.15;;;4.43;;
25990;SDS011;13779;-33.886;151.198;2024-01-30T06:12:17;18.92;;;4.30;;
25990;SDS011;13779;-33.886;151.198;2024-01-30T06:14:47;24.63;;;4.63;;
25990;SDS011;13779;-33.886;151.198;2024-01-30T06:17:18;22.83;;;4.82;;
25990;SDS011;13779;-33.886;151.198;2024-01-30T06:19:48;24.95;;;5.00;;
25990;SDS011;13779;-33.886;151.198;2024-01-30T06:22:19;19.48;;;5.13;;
25990;SDS011;13779;-33.886;151.198;2024-01-30T06:24:50;26.13;;;5.22;;
25990;SDS011;13779;-33.886;151.198;2024-01-30T06:27:21;20.30;;;4.68;;
25990;SDS011;13779;-33.886;151.198;2024-01-30T06:29:51;28.23;;;5.80;;
25990;SDS011;13779;-33.886;151.198;2024-01-30T06:32:22;23.52;;;5.53;;
25990;SDS011;13779;-33.886;151.198;2024-01-30T06:34:53;34.47;;;10.30;;
25990;SDS011;13779;-33.886;151.198;2024-01-30T06:37:23;33.25;;;9.35;;
25990;SDS011;13779;-33.886;151.198;2024-01-30T06:39:54;35.60;;;10.60;;
25990;SDS011;13779;-33.886;151.198;2024-01-30T06:42:25;30.45;;;8.07;;
25990;SDS011;13779;-33.886;151.198;2024-01-30T06:44:55;28.08;;;8.27;;
25990;SDS011;13779;-33.886;151.198;2024-01-30T06:47:27;29.25;;;7.35;;
25990;SDS011;13779;-33.886;151.198;2024-01-30T06:49:59;52.85;;;20.85;;
25990;SDS011;13779;-33.886;151.198;2024-01-30T06:52:30;39.47;;;12.63;;
25990;SDS011;13779;-33.886;151.198;2024-01-30T06:55:01;42.88;;;8.50;;
25990;SDS011;13779;-33.886;151.198;2024-01-30T06:57:32;27.58;;;7.13;;
25990;SDS011;13779;-33.886;151.198;2024-01-30T07:00:03;26.73;;;6.22;;
25990;SDS011;13779;-33.886;151.198;2024-01-30T07:05:03;30.77;;;5.80;;
25990;SDS011;13779;-33.886;151.198;2024-01-30T07:07:37;27.17;;;6.75;;
25990;SDS011;13779;-33.886;151.198;2024-01-30T07:10:08;25.00;;;5.47;;
25990;SDS011;13779;-33.886;151.198;2024-01-30T07:12:38;27.55;;;6.20;;
25990;SDS011;13779;-33.886;151.198;2024-01-30T07:15:09;27.55;;;6.28;;
25990;SDS011;13779;-33.886;151.198;2024-01-30T07:17:40;28.10;;;6.03;;
25990;SDS011;13779;-33.886;151.198;2024-01-30T07:20:11;27.60;;;6.03;;
25990;SDS011;13779;-33.886;151.198;2024-01-30T07:22:45;23.40;;;5.35;;
25990;SDS011;13779;-33.886;151.198;2024-01-30T07:25:17;29.63;;;5.38;;
25990;SDS011;13779;-33.886;151.198;2024-01-30T07:27:47;28.35;;;5.60;;
25990;SDS011;13779;-33.886;151.198;2024-01-30T07:30:17;24.98;;;6.05;;
25990;SDS011;13779;-33.886;151.198;2024-01-30T07:32:48;32.15;;;6.50;;
25990;SDS011;13779;-33.886;151.198;2024-01-30T07:35:19;39.33;;;7.07;;
25990;SDS011;13779;-33.886;151.198;2024-01-30T07:37:52;29.45;;;5.63;;
25990;SDS011;13779;-33.886;151.198;2024-01-30T07:40:23;27.43;;;5.13;;
25990;SDS011;13779;-33.886;151.198;2024-01-30T07:42:54;36.85;;;5.60;;
25990;SDS011;13779;-33.886;151.198;2024-01-30T07:45:24;28.80;;;4.95;;
25990;SDS011;13779;-33.886;151.198;2024-01-30T07:47:56;29.50;;;5.05;;
25990;SDS011;13779;-33.886;151.198;2024-01-30T07:50:26;26.00;;;5.43;;
25990;SDS011;13779;-33.886;151.198;2024-01-30T07:52:56;35.67;;;6.43;;
25990;SDS011;13779;-33.886;151.198;2024-01-30T07:55:28;31.52;;;6.25;;
25990;SDS011;13779;-33.886;151.198;2024-01-30T07:58:00;33.40;;;6.35;;
25990;SDS011;13779;-33.886;151.198;2024-01-30T08:00:32;29.58;;;6.63;;
25990;SDS011;13779;-33.886;151.198;2024-01-30T08:03:02;29.30;;;6.40;;
25990;SDS011;13779;-33.886;151.198;2024-01-30T08:05:33;29.52;;;5.28;;
25990;SDS011;13779;-33.886;151.198;2024-01-30T08:08:03;34.73;;;6.20;;
25990;SDS011;13779;-33.886;151.198;2024-01-30T08:10:34;30.77;;;6.88;;
25990;SDS011;13779;-33.886;151.198;2024-01-30T08:13:04;20.73;;;5.00;;
25990;SDS011;13779;-33.886;151.198;2024-01-30T08:15:34;26.38;;;5.25;;
25990;SDS011;13779;-33.886;151.198;2024-01-30T08:18:05;30.37;;;5.67;;
25990;SDS011;13779;-33.886;151.198;2024-01-30T08:20:35;24.42;;;5.75;;
25990;SDS011;13779;-33.886;151.198;2024-01-30T08:23:06;28.70;;;5.50;;
25990;SDS011;13779;-33.886;151.198;2024-01-30T08:25:38;29.50;;;6.22;;
25990;SDS011;13779;-33.886;151.198;2024-01-30T08:28:08;24.33;;;5.25;;
25990;SDS011;13779;-33.886;151.198;2024-01-30T08:30:39;30.67;;;6.22;;
25990;SDS011;13779;-33.886;151.198;2024-01-30T08:33:09;33.03;;;8.50;;
25990;SDS011;13779;-33.886;151.198;2024-01-30T08:35:39;37.13;;;7.65;;
25990;SDS011;13779;-33.886;151.198;2024-01-30T08:38:10;39.07;;;5.93;;
25990;SDS011;13779;-33.886;151.198;2024-01-30T08:40:41;24.08;;;6.50;;
25990;SDS011;13779;-33.886;151.198;2024-01-30T08:43:11;32.15;;;12.25;;
25990;SDS011;13779;-33.886;151.198;2024-01-30T08:45:42;31.60;;;6.95;;
25990;SDS011;13779;-33.886;151.198;2024-01-30T08:48:12;30.60;;;6.77;;
25990;SDS011;13779;-33.886;151.198;2024-01-30T08:50:43;29.27;;;5.70;;
25990;SDS011;13779;-33.886;151.198;2024-01-30T08:53:13;32.15;;;7.35;;
25990;SDS011;13779;-33.886;151.198;2024-01-30T08:55:43;27.58;;;5.50;;
25990;SDS011;13779;-33.886;151.198;2024-01-30T08:58:14;29.42;;;6.28;;
25990;SDS011;13779;-33.886;151.198;2024-01-30T09:00:46;32.13;;;6.25;;
25990;SDS011;13779;-33.886;151.198;2024-01-30T09:03:16;25.13;;;5.60;;
25990;SDS011;13779;-33.886;151.198;2024-01-30T09:05:47;31.27;;;6.28;;
25990;SDS011;13779;-33.886;151.198;2024-01-30T09:08:18;33.72;;;5.65;;
25990;SDS011;13779;-33.886;151.198;2024-01-30T09:10:48;33.13;;;5.43;;
25990;SDS011;13779;-33.886;151.198;2024-01-30T09:13:18;31.45;;;5.32;;
25990;SDS011;13779;-33.886;151.198;2024-01-30T09:15:48;29.63;;;5.53;;
25990;SDS011;13779;-33.886;151.198;2024-01-30T09:18:18;33.30;;;5.47;;
25990;SDS011;13779;-33.886;151.198;2024-01-30T09:20:49;31.35;;;6.03;;
25990;SDS011;13779;-33.886;151.198;2024-01-30T09:23:20;33.40;;;5.63;;
25990;SDS011;13779;-33.886;151.198;2024-01-30T09:25:52;24.63;;;4.85;;
25990;SDS011;13779;-33.886;151.198;2024-01-30T09:28:23;37.40;;;5.68;;
25990;SDS011;13779;-33.886;151.198;2024-01-30T09:33:23;32.08;;;5.20;;
25990;SDS011;13779;-33.886;151.198;2024-01-30T09:35:54;21.40;;;5.07;;
25990;SDS011;13779;-33.886;151.198;2024-01-30T09:38:25;31.85;;;5.20;;
25990;SDS011;13779;-33.886;151.198;2024-01-30T09:40:55;36.47;;;5.68;;
25990;SDS011;13779;-33.886;151.198;2024-01-30T09:43:28;29.13;;;5.13;;
25990;SDS011;13779;-33.886;151.198;2024-01-30T09:46:03;29.40;;;5.75;;
25990;SDS011;13779;-33.886;151.198;2024-01-30T09:48:37;34.30;;;5.60;;
25990;SDS011;13779;-33.886;151.198;2024-01-30T09:51:09;32.78;;;6.18;;
25990;SDS011;13779;-33.886;151.198;2024-01-30T09:53:41;23.17;;;5.18;;
25990;SDS011;13779;-33.886;151.198;2024-01-30T09:56:13;35.67;;;5.13;;
25990;SDS011;13779;-33.886;151.198;2024-01-30T09:58:45;39.58;;;5.65;;
25990;SDS011;13779;-33.886;151.198;2024-01-30T10:01:17;36.88;;;6.90;;
25990;SDS011;13779;-33.886;151.198;2024-01-30T10:03:50;31.17;;;5.57;;
25990;SDS011;13779;-33.886;151.198;2024-01-30T10:06:24;29.27;;;4.72;;
25990;SDS011;13779;-33.886;151.198;2024-01-30T10:08:56;33.28;;;5.65;;
25990;SDS011;13779;-33.886;151.198;2024-01-30T10:11:26;26.50;;;4.63;;
25990;SDS011;13779;-33.886;151.198;2024-01-30T10:13:57;33.17;;;6.45;;
25990;SDS011;13779;-33.886;151.198;2024-01-30T10:16:30;32.30;;;5.75;;
25990;SDS011;13779;-33.886;151.198;2024-01-30T10:19:01;23.77;;;6.03;;
25990;SDS011;13779;-33.886;151.198;2024-01-30T10:21:31;26.65;;;5.25;;
25990;SDS011;13779;-33.886;151.198;2024-01-30T10:24:02;35.72;;;7.15;;
25990;SDS011;13779;-33.886;151.198;2024-01-30T10:26:33;37.50;;;7.57;;
25990;SDS011;13779;-33.886;151.198;2024-01-30T10:29:06;28.70;;;6.32;;
25990;SDS011;13779;-33.886;151.198;2024-01-30T10:31:37;26.65;;;6.28;;
25990;SDS011;13779;-33.886;151.198;2024-01-30T10:34:08;32.03;;;7.20;;
25990;SDS011;13779;-33.886;151.198;2024-01-30T10:36:46;32.60;;;5.55;;
25990;SDS011;13779;-33.886;151.198;2024-01-30T10:39:19;30.98;;;5.10;;
25990;SDS011;13779;-33.886;151.198;2024-01-30T10:41:51;34.75;;;6.15;;
25990;SDS011;13779;-33.886;151.198;2024-01-30T10:44:37;28.35;;;5.57;;
25990;SDS011;13779;-33.886;151.198;2024-01-30T10:47:18;31.65;;;6.90;;
25990;SDS011;13779;-33.886;151.198;2024-01-30T10:49:56;25.55;;;4.75;;
25990;SDS011;13779;-33.886;151.198;2024-01-30T10:52:26;33.85;;;5.68;;
25990;SDS011;13779;-33.886;151.198;2024-01-30T10:54:59;35.63;;;8.63;;
25990;SDS011;13779;-33.886;151.198;2024-01-30T10:57:29;35.58;;;6.20;;
25990;SDS011;13779;-33.886;151.198;2024-01-30T11:00:10;33.38;;;6.75;;
25990;SDS011;13779;-33.886;151.198;2024-01-30T11:02:44;36.33;;;7.70;;
25990;SDS011;13779;-33.886;151.198;2024-01-30T11:05:23;30.30;;;6.38;;
25990;SDS011;13779;-33.886;151.198;2024-01-30T11:07:58;29.98;;;6.53;;
25990;SDS011;13779;-33.886;151.198;2024-01-30T11:10:46;27.00;;;6.72;;
25990;SDS011;13779;-33.886;151.198;2024-01-30T11:13:18;37.70;;;7.03;;
25990;SDS011;13779;-33.886;151.198;2024-01-30T11:15:49;29.00;;;6.32;;
25990;SDS011;13779;-33.886;151.198;2024-01-30T11:20:55;37.83;;;5.30;;
25990;SDS011;13779;-33.886;151.198;2024-01-30T11:23:33;33.42;;;6.10;;
25990;SDS011;13779;-33.886;151.198;2024-01-30T11:26:05;28.27;;;5.35;;
25990;SDS011;13779;-33.886;151.198;2024-01-30T11:28:37;34.33;;;6.15;;
25990;SDS011;13779;-33.886;151.198;2024-01-30T11:31:08;37.35;;;7.45;;
25990;SDS011;13779;-33.886;151.198;2024-01-30T11:33:40;26.27;;;6.25;;
25990;SDS011;13779;-33.886;151.198;2024-01-30T11:36:11;21.42;;;5.57;;
25990;SDS011;13779;-33.886;151.198;2024-01-30T11:38:44;21.83;;;5.90;;
25990;SDS011;13779;-33.886;151.198;2024-01-30T11:43:52;36.45;;;7.28;;
25990;SDS011;13779;-33.886;151.198;2024-01-30T11:46:24;27.50;;;5.65;;
25990;SDS011;13779;-33.886;151.198;2024-01-30T11:48:55;32.70;;;6.88;;
25990;SDS011;13779;-33.886;151.198;2024-01-30T11:51:27;33.28;;;6.72;;
25990;SDS011;13779;-33.886;151.198;2024-01-30T11:53:59;22.90;;;6.45;;
25990;SDS011;13779;-33.886;151.198;2024-01-30T11:56:30;30.83;;;6.70;;
25990;SDS011;13779;-33.886;151.198;2024-01-30T11:59:01;33.83;;;6.18;;
25990;SDS011;13779;-33.886;151.198;2024-01-30T12:01:31;25.65;;;5.65;;
25990;SDS011;13779;-33.886;151.198;2024-01-30T12:06:38;37.90;;;7.25;;
25990;SDS011;13779;-33.886;151.198;2024-01-30T12:09:09;31.27;;;7.00;;
25990;SDS011;13779;-33.886;151.198;2024-01-30T12:11:48;27.80;;;5.78;;
25990;SDS011;13779;-33.886;151.198;2024-01-30T12:14:18;31.48;;;7.50;;
25990;SDS011;13779;-33.886;151.198;2024-01-30T12:16:50;30.88;;;7.35;;
25990;SDS011;13779;-33.886;151.198;2024-01-30T12:19:22;27.15;;;6.47;;
25990;SDS011;13779;-33.886;151.198;2024-01-30T12:21:54;30.70;;;5.50;;
25990;SDS011;13779;-33.886;151.198;2024-01-30T12:24:31;23.17;;;5.50;;
25990;SDS011;13779;-33.886;151.198;2024-01-30T12:29:32;26.83;;;6.35;;
25990;SDS011;13779;-33.886;151.198;2024-01-30T12:32:05;26.98;;;5.88;;
25990;SDS011;13779;-33.886;151.198;2024-01-30T12:34:40;41.58;;;7.78;;
25990;SDS011;13779;-33.886;151.198;2024-01-30T12:37:15;24.77;;;7.10;;
25990;SDS011;13779;-33.886;151.198;2024-01-30T12:39:53;33.17;;;7.93;;
25990;SDS011;13779;-33.886;151.198;2024-01-30T12:42:23;31.52;;;6.53;;
25990;SDS011;13779;-33.886;151.198;2024-01-30T12:44:59;26.77;;;6.28;;
25990;SDS011;13779;-33.886;151.198;2024-01-30T12:47:31;40.22;;;10.25;;
25990;SDS011;13779;-33.886;151.198;2024-01-30T12:50:02;32.60;;;8.68;;
25990;SDS011;13779;-33.886;151.198;2024-01-30T12:52:33;39.30;;;7.45;;
25990;SDS011;13779;-33.886;151.198;2024-01-30T12:55:05;25.30;;;6.47;;
25990;SDS011;13779;-33.886;151.198;2024-01-30T12:57:36;33.13;;;6.78;;
25990;SDS011;13779;-33.886;151.198;2024-01-30T13:00:08;34.30;;;6.53;;
25990;SDS011;13779;-33.886;151.198;2024-01-30T13:02:39;27.63;;;5.65;;
25990;SDS011;13779;-33.886;151.198;2024-01-30T13:05:13;55.30;;;7.40;;
25990;SDS011;13779;-33.886;151.198;2024-01-30T13:07:45;29.02;;;6.53;;
25990;SDS011;13779;-33.886;151.198;2024-01-30T13:10:15;27.13;;;5.72;;
25990;SDS011;13779;-33.886;151.198;2024-01-30T13:15:16;27.02;;;5.97;;
25990;SDS011;13779;-33.886;151.198;2024-01-30T13:17:46;43.95;;;7.82;;
25990;SDS011;13779;-33.886;151.198;2024-01-30T13:20:18;32.35;;;6.45;;
25990;SDS011;13779;-33.886;151.198;2024-01-30T13:22:49;36.17;;;7.15;;
25990;SDS011;13779;-33.886;151.198;2024-01-30T13:25:23;24.95;;;5.63;;
25990;SDS011;13779;-33.886;151.198;2024-01-30T13:27:55;26.17;;;6.43;;
25990;SDS011;13779;-33.886;151.198;2024-01-30T13:30:25;28.70;;;6.05;;
25990;SDS011;13779;-33.886;151.198;2024-01-30T13:32:56;31.50;;;6.72;;
25990;SDS011;13779;-33.886;151.198;2024-01-30T13:35:27;31.77;;;6.57;;
25990;SDS011;13779;-33.886;151.198;2024-01-30T13:37:57;44.00;;;6.88;;
25990;SDS011;13779;-33.886;151.198;2024-01-30T13:40:28;29.60;;;6.32;;
25990;SDS011;13779;-33.886;151.198;2024-01-30T13:42:59;26.27;;;5.72;;
25990;SDS011;13779;-33.886;151.198;2024-01-30T13:45:29;25.75;;;5.80;;
25990;SDS011;13779;-33.886;151.198;2024-01-30T13:48:00;36.97;;;8.15;;
25990;SDS011;13779;-33.886;151.198;2024-01-30T13:50:31;27.48;;;6.50;;
25990;SDS011;13779;-33.886;151.198;2024-01-30T13:53:02;29.58;;;6.25;;
25990;SDS011;13779;-33.886;151.198;2024-01-30T13:58:03;34.15;;;7.15;;
25990;SDS011;13779;-33.886;151.198;2024-01-30T14:00:34;31.13;;;5.93;;
25990;SDS011;13779;-33.886;151.198;2024-01-30T14:03:05;31.77;;;6.63;;
25990;SDS011;13779;-33.886;151.198;2024-01-30T14:05:35;37.78;;;6.68;;
25990;SDS011;13779;-33.886;151.198;2024-01-30T14:08:06;31.52;;;5.93;;
25990;SDS011;13779;-33.886;151.198;2024-01-30T14:10:37;31.15;;;6.30;;
25990;SDS011;13779;-33.886;151.198;2024-01-30T14:13:08;34.63;;;7.18;;
25990;SDS011;13779;-33.886;151.198;2024-01-30T14:15:40;30.65;;;6.90;;
25990;SDS011;13779;-33.886;151.198;2024-01-30T14:18:11;33.42;;;6.65;;
25990;SDS011;13779;-33.886;151.198;2024-01-30T14:20:41;31.30;;;7.35;;
25990;SDS011;13779;-33.886;151.198;2024-01-30T14:23:12;24.13;;;6.97;;
25990;SDS011;13779;-33.886;151.198;2024-01-30T14:25:43;27.15;;;6.45;;
25990;SDS011;13779;-33.886;151.198;2024-01-30T14:28:14;36.95;;;7.65;;
25990;SDS011;13779;-33.886;151.198;2024-01-30T14:30:44;38.30;;;7.72;;
25990;SDS011;13779;-33.886;151.198;2024-01-30T14:33:19;33.10;;;7.93;;
25990;SDS011;13779;-33.886;151.198;2024-01-30T14:35:49;24.35;;;6.00;;
25990;SDS011;13779;-33.886;151.198;2024-01-30T14:38:20;34.40;;;6.22;;
25990;SDS011;13779;-33.886;151.198;2024-01-30T14:40:50;38.58;;;8.73;;
25990;SDS011;13779;-33.886;151.198;2024-01-30T14:43:21;31.42;;;7.68;;
25990;SDS011;13779;-33.886;151.198;2024-01-30T14:45:53;33.22;;;7.00;;
25990;SDS011;13779;-33.886;151.198;2024-01-30T14:48:24;34.60;;;7.80;;
25990;SDS011;13779;-33.886;151.198;2024-01-30T14:50:56;25.42;;;6.05;;
25990;SDS011;13779;-33.886;151.198;2024-01-30T14:53:27;31.55;;;7.55;;
25990;SDS011;13779;-33.886;151.198;2024-01-30T14:55:57;27.90;;;7.65;;
25990;SDS011;13779;-33.886;151.198;2024-01-30T14:58:28;38.65;;;7.88;;